Time;durP1;ratioP1;P1;durP2;ratioP2;P2;SDS_P1;SDS_P2;PMS_P1;PMS_P2;Temp;Humidity;BMP_temperature;BMP_pressure;BME280_temperature;BME280_humidity;BME280_pressure;Samples;Min_cycle;Max_cycle;Signal;HPM_P1;HPM_P2
2022/03/12 00:00:32;;;;;;;280.80;132.52;;;-2.70;99.90;;;;;;5055448;28;20051;-73
2022/03/12 00:02:58;;;;;;;308.85;146.40;;;-2.80;99.90;;;;;;5055644;28;20013;-74
2022/03/12 00:05:27;;;;;;;281.60;125.47;;;-2.80;99.90;;;;;;5055650;28;20186;-73
2022/03/12 00:07:53;;;;;;;247.98;108.85;;;-2.70;99.90;;;;;;5053766;28;20479;-73
2022/03/12 00:10:21;;;;;;;227.80;104.85;;;-2.80;99.90;;;;;;5055853;28;20021;-75
2022/03/12 00:12:48;;;;;;;187.90;86.35;;;-2.80;99.90;;;;;;5055301;28;20021;-73
2022/03/12 00:15:14;;;;;;;158.57;76.28;;;-2.80;99.90;;;;;;5055630;28;20029;-73
2022/03/12 00:17:45;;;;;;;137.80;63.95;;;-2.80;99.90;;;;;;5055199;28;20486;-72
2022/03/12 00:20:18;;;;;;;138.63;60.22;;;-2.80;99.90;;;;;;5052720;28;20100;-73
2022/03/12 00:22:47;;;;;;;128.25;55.85;;;-2.80;99.90;;;;;;5055347;28;20017;-74
2022/03/12 00:25:27;;;;;;;119.63;54.67;;;-2.80;99.90;;;;;;5052742;28;20029;-72
2022/03/12 00:27:54;;;;;;;122.47;51.42;;;-2.80;99.90;;;;;;5052855;28;20021;-74
2022/03/12 00:30:22;;;;;;;122.32;52.05;;;-2.80;99.90;;;;;;5055243;28;20480;-75
2022/03/12 00:32:51;;;;;;;126.35;51.63;;;-2.80;99.90;;;;;;5055232;28;20017;-73
2022/03/12 00:35:17;;;;;;;132.70;55.03;;;-2.90;99.90;;;;;;5055012;28;20025;-74
2022/03/12 00:37:44;;;;;;;164.05;62.80;;;-2.90;99.90;;;;;;5054630;28;20021;-73
2022/03/12 00:40:10;;;;;;;148.90;62.50;;;-2.90;99.90;;;;;;5054787;28;20017;-73
2022/03/12 00:42:36;;;;;;;191.23;76.97;;;-2.80;99.90;;;;;;5053592;28;20025;-74
2022/03/12 00:45:02;;;;;;;150.80;64.97;;;-2.80;99.90;;;;;;5054895;28;20044;-75
2022/03/12 00:47:28;;;;;;;147.05;63.50;;;-2.80;99.90;;;;;;5054671;28;20055;-74
2022/03/12 00:49:55;;;;;;;169.52;68.25;;;-2.80;99.90;;;;;;5054699;28;20514;-73
2022/03/12 00:52:21;;;;;;;162.57;66.75;;;-2.80;99.90;;;;;;5054598;28;20430;-74
2022/03/12 00:54:47;;;;;;;172.20;68.00;;;-2.80;99.90;;;;;;5054526;28;20021;-73
2022/03/12 00:57:13;;;;;;;142.30;58.15;;;-2.80;99.90;;;;;;5054900;28;20027;-72
2022/03/12 00:59:40;;;;;;;148.38;62.75;;;-2.80;99.90;;;;;;5054672;28;20025;-75
2022/03/12 01:02:08;;;;;;;167.65;67.40;;;-2.90;99.90;;;;;;5054225;28;20025;-72
2022/03/12 01:04:35;;;;;;;207.18;86.00;;;-2.80;99.90;;;;;;5054732;28;20025;-72
2022/03/12 01:07:00;;;;;;;207.85;84.75;;;-2.90;99.90;;;;;;5054554;28;20017;-73
2022/03/12 01:09:26;;;;;;;219.82;86.15;;;-2.90;99.90;;;;;;5054357;28;20028;-75
2022/03/12 01:11:52;;;;;;;217.73;84.05;;;-2.90;99.90;;;;;;5054791;28;20071;-73
2022/03/12 01:14:18;;;;;;;206.30;79.57;;;-3.00;99.90;;;;;;5054286;28;20029;-73
2022/03/12 01:16:44;;;;;;;187.20;73.85;;;-3.00;99.90;;;;;;5054270;28;20071;-73
2022/03/12 01:19:10;;;;;;;178.40;70.43;;;-2.90;99.90;;;;;;5054265;28;20086;-72
2022/03/12 01:21:35;;;;;;;161.27;66.28;;;-2.90;99.90;;;;;;5054557;28;20061;-73
2022/03/12 01:24:01;;;;;;;156.20;61.75;;;-2.90;99.90;;;;;;5054078;28;20104;-72
2022/03/12 01:26:27;;;;;;;157.00;60.40;;;-2.90;99.90;;;;;;5054088;28;20048;-73
2022/03/12 01:28:53;;;;;;;123.40;52.05;;;-2.90;99.90;;;;;;5054296;28;20017;-73
2022/03/12 01:31:19;;;;;;;120.68;52.38;;;-2.90;99.90;;;;;;5054009;28;20075;-74
2022/03/12 01:33:46;;;;;;;127.47;47.92;;;-2.90;99.90;;;;;;5054013;28;20037;-73
2022/03/12 01:36:13;;;;;;;112.55;45.67;;;-2.90;99.90;;;;;;5054029;28;20024;-71
2022/03/12 01:38:50;;;;;;;99.07;46.05;;;-2.90;99.90;;;;;;5053874;28;20463;-73
2022/03/12 01:41:27;;;;;;;108.47;42.20;;;-2.90;99.90;;;;;;5051561;28;20059;-73
2022/03/12 01:43:54;;;;;;;120.13;45.70;;;-2.90;99.90;;;;;;5050910;28;20621;-73
2022/03/12 01:46:33;;;;;;;100.20;42.97;;;-2.90;99.90;;;;;;5053890;28;20024;-73
2022/03/12 01:49:02;;;;;;;97.45;38.42;;;-2.90;99.90;;;;;;5051967;28;20048;-73
2022/03/12 01:51:28;;;;;;;96.53;41.25;;;-2.90;99.90;;;;;;5052435;28;20066;-73
2022/03/12 01:53:54;;;;;;;97.40;40.65;;;-2.90;99.90;;;;;;5053390;28;20029;-72
2022/03/12 01:56:25;;;;;;;98.80;43.97;;;-2.90;99.90;;;;;;5053666;28;20021;-74
2022/03/12 01:58:51;;;;;;;95.60;41.72;;;-2.90;99.90;;;;;;5053468;28;20021;-73
2022/03/12 02:01:18;;;;;;;105.60;44.40;;;-3.00;99.90;;;;;;5053461;28;20025;-72
2022/03/12 02:03:45;;;;;;;102.65;43.65;;;-2.90;99.90;;;;;;5053515;28;20067;-73
2022/03/12 02:06:15;;;;;;;115.95;44.58;;;-2.90;99.90;;;;;;5050282;28;20373;-74
2022/03/12 02:08:41;;;;;;;105.55;46.40;;;-3.00;99.90;;;;;;5053705;28;20479;-74
2022/03/12 02:11:07;;;;;;;113.30;49.00;;;-3.00;99.90;;;;;;5052990;28;20021;-73
2022/03/12 02:13:37;;;;;;;115.72;48.90;;;-3.00;99.90;;;;;;5052890;28;20024;-73
2022/03/12 02:16:10;;;;;;;115.45;51.08;;;-3.00;99.90;;;;;;5053242;28;20017;-74
2022/03/12 02:18:38;;;;;;;117.65;50.08;;;-3.10;99.90;;;;;;5050546;28;20040;-72
2022/03/12 02:21:04;;;;;;;129.23;53.78;;;-3.10;99.90;;;;;;5053204;28;20032;-73
2022/03/12 02:23:53;;;;;;;123.10;51.95;;;-3.20;99.90;;;;;;5052615;28;20036;-73
2022/03/12 02:26:18;;;;;;;123.07;51.38;;;-3.30;99.90;;;;;;5051174;28;20017;-73
2022/03/12 02:28:45;;;;;;;115.47;47.83;;;-3.20;99.90;;;;;;5052837;28;20029;-72
2022/03/12 02:31:13;;;;;;;107.55;48.28;;;-3.20;99.90;;;;;;5052949;28;20052;-72
2022/03/12 02:33:39;;;;;;;117.28;49.60;;;-3.20;99.90;;;;;;5052627;28;20032;-73
2022/03/12 02:36:07;;;;;;;120.22;46.60;;;-3.20;99.90;;;;;;5052849;28;20029;-72
2022/03/12 02:38:35;;;;;;;117.85;48.45;;;-3.20;99.90;;;;;;5050176;28;20029;-72
2022/03/12 02:41:10;;;;;;;109.82;46.17;;;-3.20;99.90;;;;;;5052387;28;20017;-73
2022/03/12 02:43:43;;;;;;;102.57;43.63;;;-3.30;99.90;;;;;;5050462;28;20044;-72
2022/03/12 02:46:10;;;;;;;88.35;40.92;;;-3.30;99.90;;;;;;5052472;28;20021;-73
2022/03/12 02:48:36;;;;;;;105.38;43.60;;;-3.40;99.90;;;;;;5052268;28;20036;-72
2022/03/12 02:51:04;;;;;;;99.43;44.20;;;-3.40;99.90;;;;;;5052550;28;20044;-73
2022/03/12 02:53:30;;;;;;;116.72;47.58;;;-3.40;99.90;;;;;;5052342;28;20032;-73
2022/03/12 02:55:57;;;;;;;104.55;44.20;;;-3.40;99.90;;;;;;5052869;28;20036;-73
2022/03/12 02:58:23;;;;;;;98.65;41.17;;;-3.40;99.90;;;;;;5052252;28;20025;-72
2022/03/12 03:00:49;;;;;;;94.30;39.63;;;-3.40;99.90;;;;;;5052050;28;20021;-73
2022/03/12 03:03:15;;;;;;;85.32;38.70;;;-3.50;99.90;;;;;;5052439;28;20031;-72
2022/03/12 03:05:45;;;;;;;90.40;38.83;;;-3.50;99.90;;;;;;5052420;28;20029;-72
2022/03/12 03:08:19;;;;;;;83.93;37.63;;;-3.40;99.90;;;;;;5051926;28;20017;-73
2022/03/12 03:10:47;;;;;;;81.72;36.78;;;-3.50;99.90;;;;;;5051114;28;20025;-72
2022/03/12 03:13:16;;;;;;;87.30;37.22;;;-3.50;99.90;;;;;;5051944;28;20047;-73
2022/03/12 03:15:47;;;;;;;90.35;36.90;;;-3.50;99.90;;;;;;5052156;28;20044;-71
2022/03/12 03:18:20;;;;;;;95.97;41.97;;;-3.50;99.90;;;;;;5049472;28;20037;-71
2022/03/12 03:20:47;;;;;;;93.28;41.90;;;-3.50;99.90;;;;;;5052360;28;20463;-71
2022/03/12 03:23:13;;;;;;;98.45;42.88;;;-3.50;99.90;;;;;;5049439;28;20070;-71
2022/03/12 03:25:40;;;;;;;96.15;42.72;;;-3.60;99.90;;;;;;5051974;28;20486;-72
2022/03/12 03:28:07;;;;;;;94.75;40.63;;;-3.60;99.90;;;;;;5052293;28;20123;-72
2022/03/12 03:30:35;;;;;;;89.43;39.50;;;-3.60;99.90;;;;;;5049304;28;20128;-71
2022/03/12 03:33:03;;;;;;;84.18;37.80;;;-3.70;99.90;;;;;;5051774;28;20032;-71
2022/03/12 03:35:29;;;;;;;82.30;37.55;;;-3.70;99.90;;;;;;5051616;28;20017;-73
2022/03/12 03:37:57;;;;;;;93.00;39.60;;;-3.70;99.90;;;;;;5051845;28;20032;-72
2022/03/12 03:40:23;;;;;;;86.72;37.65;;;-3.70;99.90;;;;;;5051813;28;20025;-70
2022/03/12 03:42:49;;;;;;;83.50;37.72;;;-3.70;99.90;;;;;;5051795;28;20025;-72
2022/03/12 03:45:22;;;;;;;87.85;37.42;;;-3.70;99.90;;;;;;5051704;28;20036;-72
2022/03/12 03:47:50;;;;;;;83.55;38.13;;;-3.70;99.90;;;;;;5051903;28;20047;-71
2022/03/12 03:50:16;;;;;;;88.45;39.70;;;-3.70;99.90;;;;;;5051883;28;20029;-72
2022/03/12 03:52:42;;;;;;;88.93;39.60;;;-3.70;99.90;;;;;;5051886;28;20100;-71
2022/03/12 03:55:08;;;;;;;97.35;43.25;;;-3.70;99.90;;;;;;5051824;28;20154;-70
2022/03/12 03:57:33;;;;;;;88.55;41.20;;;-3.70;99.90;;;;;;5051805;28;20464;-72
2022/03/12 03:59:59;;;;;;;94.15;40.38;;;-3.70;99.90;;;;;;5051526;28;20032;-72
2022/03/12 04:02:25;;;;;;;84.88;36.70;;;-3.70;99.90;;;;;;5052234;28;20021;-73
2022/03/12 04:04:51;;;;;;;79.00;37.40;;;-3.70;99.90;;;;;;5051681;28;20025;-72
2022/03/12 04:07:17;;;;;;;84.60;37.47;;;-3.80;99.90;;;;;;5051452;28;20057;-73
2022/03/12 04:09:43;;;;;;;183.90;72.43;;;-3.70;99.90;;;;;;5051666;28;20041;-71
2022/03/12 04:12:09;;;;;;;175.75;71.70;;;-3.80;99.90;;;;;;5051520;28;20060;-72
2022/03/12 04:14:35;;;;;;;185.38;74.43;;;-3.80;99.90;;;;;;5054384;28;20383;-74
2022/03/12 04:17:01;;;;;;;183.65;71.35;;;-3.80;99.90;;;;;;5055572;28;20103;-73
2022/03/12 04:19:29;;;;;;;158.93;61.60;;;-3.80;99.90;;;;;;5055505;28;20049;-71
2022/03/12 04:21:58;;;;;;;125.97;52.28;;;-3.80;99.90;;;;;;5052625;28;20115;-72
2022/03/12 04:24:25;;;;;;;119.53;47.67;;;-3.80;99.90;;;;;;5055028;28;20379;-73
2022/03/12 04:26:52;;;;;;;139.00;49.70;;;-3.80;99.90;;;;;;5054921;28;20060;-72
2022/03/12 04:29:18;;;;;;;108.70;43.03;;;-3.80;99.90;;;;;;5055239;28;20021;-72
2022/03/12 04:31:48;;;;;;;92.72;38.25;;;-3.80;99.90;;;;;;5055201;28;20021;-71
2022/03/12 04:34:14;;;;;;;93.53;39.67;;;-3.90;99.90;;;;;;5052272;28;20025;-72
2022/03/12 04:36:46;;;;;;;100.07;43.05;;;-3.90;99.90;;;;;;5055043;28;20460;-72
2022/03/12 04:39:12;;;;;;;102.32;43.97;;;-3.90;99.90;;;;;;5054988;28;20375;-73
2022/03/12 04:41:40;;;;;;;119.75;51.80;;;-3.90;99.90;;;;;;5055143;28;20471;-72
2022/03/12 04:44:09;;;;;;;128.15;53.67;;;-4.00;99.90;;;;;;5054925;28;21031;-72
2022/03/12 04:46:36;;;;;;;122.38;51.00;;;-4.00;99.90;;;;;;5052061;28;20116;-72
2022/03/12 04:49:04;;;;;;;114.43;48.42;;;-4.00;99.90;;;;;;5054916;28;20044;-73
2022/03/12 04:51:30;;;;;;;109.90;46.00;;;-4.00;99.90;;;;;;5055163;28;20467;-73
2022/03/12 04:54:00;;;;;;;105.57;47.05;;;-4.00;99.90;;;;;;5054613;28;20029;-73
2022/03/12 04:56:27;;;;;;;125.25;53.25;;;-4.00;99.90;;;;;;5054744;28;20056;-74
2022/03/12 04:58:55;;;;;;;116.38;52.15;;;-4.00;99.90;;;;;;5054774;28;20029;-72
2022/03/12 05:01:21;;;;;;;110.63;47.15;;;-4.10;99.90;;;;;;5054342;28;20483;-72
2022/03/12 05:03:49;;;;;;;105.05;46.10;;;-4.00;99.90;;;;;;5054461;28;20025;-73
2022/03/12 05:06:15;;;;;;;112.75;45.95;;;-4.00;99.90;;;;;;5052129;28;20079;-72
2022/03/12 05:08:41;;;;;;;101.53;44.95;;;-3.90;99.90;;;;;;5054721;28;20021;-72
2022/03/12 05:11:08;;;;;;;100.82;43.42;;;-3.90;99.90;;;;;;5054421;28;20025;-72
2022/03/12 05:13:34;;;;;;;106.97;45.08;;;-3.80;99.90;;;;;;5051949;28;20040;-72
2022/03/12 05:16:05;;;;;;;123.38;53.10;;;-3.80;99.90;;;;;;5054590;28;20021;-73
2022/03/12 05:18:32;;;;;;;192.57;76.30;;;-3.80;99.90;;;;;;5053990;28;20021;-72
2022/03/12 05:20:58;;;;;;;171.27;70.78;;;-3.80;99.90;;;;;;5054144;28;20025;-73
2022/03/12 05:23:24;;;;;;;159.77;68.45;;;-3.70;99.90;;;;;;5054011;28;20017;-73
2022/03/12 05:25:51;;;;;;;140.75;58.60;;;-3.70;99.90;;;;;;5053808;28;20385;-72
2022/03/12 05:28:32;;;;;;;161.02;59.95;;;-3.70;99.90;;;;;;5053724;28;20024;-74
2022/03/12 05:31:00;;;;;;;184.93;69.07;;;-3.60;99.90;;;;;;5051999;28;20041;-72
2022/03/12 05:33:27;;;;;;;207.82;71.60;;;-3.60;99.90;;;;;;5054093;28;20497;-72
2022/03/12 05:35:58;;;;;;;191.57;72.32;;;-3.60;99.90;;;;;;5053691;28;20028;-71
2022/03/12 05:38:25;;;;;;;197.55;68.00;;;-3.60;99.90;;;;;;5054060;28;20017;-72
2022/03/12 05:40:51;;;;;;;150.88;58.50;;;-3.50;99.90;;;;;;5053818;28;20383;-73
2022/03/12 05:43:17;;;;;;;142.20;52.75;;;-3.40;99.90;;;;;;5053903;28;20033;-74
2022/03/12 05:45:48;;;;;;;172.27;66.25;;;-3.40;99.90;;;;;;5053594;28;20364;-73
2022/03/12 05:48:16;;;;;;;102.28;44.50;;;-3.30;99.90;;;;;;5051364;28;20017;-72
2022/03/12 05:50:45;;;;;;;116.72;52.63;;;-3.30;99.90;;;;;;5053636;28;20420;-72
2022/03/12 05:53:12;;;;;;;116.95;48.20;;;-3.20;99.90;;;;;;5053332;28;20111;-74
2022/03/12 05:55:39;;;;;;;97.78;40.60;;;-3.10;99.90;;;;;;5053203;28;20509;-73
2022/03/12 05:58:07;;;;;;;108.68;42.60;;;-3.10;99.90;;;;;;5055034;28;20025;-73
2022/03/12 06:00:34;;;;;;;129.48;52.58;;;-3.00;99.90;;;;;;5054625;28;20025;-73
2022/03/12 06:03:01;;;;;;;114.03;46.38;;;-2.90;99.90;;;;;;5054771;28;20025;-72
2022/03/12 06:05:27;;;;;;;209.30;82.82;;;-2.80;99.90;;;;;;5054570;28;20128;-72
2022/03/12 06:07:54;;;;;;;287.27;114.93;;;-2.70;99.90;;;;;;5054767;28;20040;-73
2022/03/12 06:10:28;;;;;;;428.73;179.40;;;-2.70;99.90;;;;;;5054581;28;20488;-73
2022/03/12 06:12:56;;;;;;;219.20;91.40;;;-2.60;99.90;;;;;;5054559;28;20033;-72
2022/03/12 06:15:24;;;;;;;390.67;191.35;;;-2.60;99.90;;;;;;5054930;28;20043;-72
2022/03/12 06:17:51;;;;;;;139.15;57.30;;;-2.40;99.90;;;;;;5054375;28;20100;-73
2022/03/12 06:20:20;;;;;;;120.00;46.88;;;-2.30;99.90;;;;;;5054650;28;20129;-72
2022/03/12 06:22:49;;;;;;;147.48;58.83;;;-2.40;99.90;;;;;;5054155;28;20386;-73
2022/03/12 06:25:16;;;;;;;95.80;39.90;;;-2.30;99.90;;;;;;5054333;28;20583;-72
2022/03/12 06:27:44;;;;;;;107.57;45.45;;;-2.20;99.90;;;;;;5054765;28;20367;-72
2022/03/12 06:30:12;;;;;;;75.90;33.60;;;-2.20;99.90;;;;;;5054114;28;20439;-73
2022/03/12 06:32:42;;;;;;;87.95;36.92;;;-2.30;99.90;;;;;;5054180;28;20063;-72
2022/03/12 06:35:08;;;;;;;77.88;33.30;;;-2.20;99.90;;;;;;5054150;28;20463;-72
2022/03/12 06:37:34;;;;;;;73.13;32.83;;;-2.00;99.90;;;;;;5053718;28;20024;-73
2022/03/12 06:40:00;;;;;;;88.53;38.22;;;-1.80;99.90;;;;;;5054019;28;20087;-74
2022/03/12 06:42:32;;;;;;;76.70;32.22;;;-1.70;99.90;;;;;;5054190;28;20052;-73
2022/03/12 06:44:58;;;;;;;89.30;38.67;;;-1.70;99.90;;;;;;5052740;28;20060;-75
2022/03/12 06:47:29;;;;;;;74.70;33.45;;;-1.70;99.90;;;;;;5053886;28;20557;-74
2022/03/12 06:49:57;;;;;;;86.03;37.55;;;-1.60;99.00;;;;;;5053799;28;20025;-76
2022/03/12 06:52:23;;;;;;;68.10;31.02;;;-1.60;97.60;;;;;;5054214;28;20040;-77
2022/03/12 06:54:51;;;;;;;70.22;29.20;;;-1.50;97.50;;;;;;5053937;28;20036;-76
2022/03/12 06:57:18;;;;;;;80.35;35.33;;;-1.40;96.40;;;;;;5052874;28;20029;-75
2022/03/12 06:59:44;;;;;;;138.93;55.28;;;-1.20;96.50;;;;;;5053773;28;20112;-74
2022/03/12 07:02:09;;;;;;;89.95;39.67;;;-0.90;95.90;;;;;;5053694;28;20107;-74
2022/03/12 07:04:35;;;;;;;97.47;41.40;;;-0.50;94.70;;;;;;5053909;28;20033;-73
2022/03/12 07:07:01;;;;;;;80.35;36.22;;;-0.10;93.00;;;;;;5053367;28;20435;-74
2022/03/12 07:09:28;;;;;;;74.13;35.05;;;0.30;91.80;;;;;;5053489;28;20028;-73
2022/03/12 07:11:58;;;;;;;69.20;31.52;;;0.50;89.30;;;;;;5053860;28;20043;-73
2022/03/12 07:14:25;;;;;;;62.03;27.75;;;0.50;87.70;;;;;;5053719;28;20371;-73
2022/03/12 07:16:55;;;;;;;62.85;28.95;;;0.40;85.40;;;;;;5053672;28;20021;-77
2022/03/12 07:19:22;;;;;;;73.10;32.22;;;0.20;84.40;;;;;;5053581;28;20017;-73
2022/03/12 07:21:49;;;;;;;85.57;36.20;;;0.30;85.70;;;;;;5053688;28;20086;-74
2022/03/12 07:24:16;;;;;;;73.35;32.95;;;0.40;86.40;;;;;;5053126;28;20379;-73
2022/03/12 07:26:42;;;;;;;89.40;37.10;;;0.30;86.10;;;;;;5053824;28;20463;-73
2022/03/12 07:29:08;;;;;;;72.25;29.88;;;0.50;85.60;;;;;;5053683;28;20029;-74
2022/03/12 07:31:36;;;;;;;59.17;27.10;;;0.70;84.90;;;;;;5053263;28;20029;-72
2022/03/12 07:34:02;;;;;;;57.55;25.60;;;0.70;83.10;;;;;;5053390;28;20029;-73
2022/03/12 07:36:27;;;;;;;85.72;36.80;;;0.80;82.30;;;;;;5053327;28;20031;-72
2022/03/12 07:38:54;;;;;;;66.82;29.95;;;1.10;82.40;;;;;;5053629;28;20031;-73
2022/03/12 07:41:20;;;;;;;89.10;37.90;;;1.20;81.60;;;;;;5053408;28;20037;-73
2022/03/12 07:43:46;;;;;;;56.13;25.73;;;1.40;82.30;;;;;;5053601;28;20029;-73
2022/03/12 07:46:11;;;;;;;63.50;30.20;;;1.50;81.60;;;;;;5053484;28;20037;-74
2022/03/12 07:48:37;;;;;;;68.25;30.13;;;1.70;80.40;;;;;;5054496;28;20028;-73
2022/03/12 07:51:03;;;;;;;52.22;28.02;;;1.80;80.20;;;;;;5056649;28;20057;-75
2022/03/12 07:53:30;;;;;;;49.88;25.92;;;1.90;79.50;;;;;;5056712;28;20372;-74
2022/03/12 07:55:56;;;;;;;70.03;27.92;;;2.00;79.10;;;;;;5056633;28;20021;-75
2022/03/12 07:58:22;;;;;;;54.05;26.60;;;2.20;78.00;;;;;;5056340;28;20150;-74
2022/03/12 08:00:48;;;;;;;45.55;23.30;;;2.40;77.90;;;;;;5056804;28;20025;-74
2022/03/12 08:03:14;;;;;;;50.47;25.05;;;2.60;76.40;;;;;;5057103;28;20109;-74
2022/03/12 08:05:40;;;;;;;50.83;25.40;;;2.60;74.90;;;;;;5056931;28;20052;-74
2022/03/12 08:08:06;;;;;;;55.20;27.10;;;2.90;74.40;;;;;;5056630;28;20037;-74
2022/03/12 08:11:24;;;;;;;61.75;29.38;;;3.00;74.00;;;;;;5056398;28;20060;-74
2022/03/12 08:13:21;;;;;;;59.20;29.02;;;3.30;73.00;;;;;;5056538;28;20021;-74
2022/03/12 08:15:48;;;;;;;57.72;28.42;;;3.40;72.20;;;;;;5056808;28;20075;-74
2022/03/12 08:18:14;;;;;;;54.95;27.63;;;3.50;71.50;;;;;;5056037;28;20063;-74
2022/03/12 08:20:40;;;;;;;68.05;32.42;;;3.30;70.90;;;;;;5056096;28;20049;-75
2022/03/12 08:23:08;;;;;;;59.60;28.17;;;3.40;69.60;;;;;;5056227;28;20033;-74
2022/03/12 08:25:34;;;;;;;53.75;27.58;;;3.60;67.30;;;;;;5056362;28;20035;-75
2022/03/12 08:28:00;;;;;;;102.10;43.78;;;3.90;68.10;;;;;;5056011;28;20095;-73
2022/03/12 08:30:25;;;;;;;57.85;27.88;;;4.00;66.70;;;;;;5056548;28;20044;-74
2022/03/12 08:32:52;;;;;;;47.95;25.13;;;4.10;65.60;;;;;;5056441;28;20077;-75
2022/03/12 08:35:18;;;;;;;53.97;28.08;;;4.10;67.30;;;;;;5056388;28;20025;-75
2022/03/12 08:37:44;;;;;;;119.68;49.90;;;4.30;66.60;;;;;;5056459;28;20036;-74
2022/03/12 08:40:12;;;;;;;58.08;28.95;;;4.50;66.20;;;;;;5056508;28;20067;-76
2022/03/12 08:42:38;;;;;;;113.72;49.40;;;4.50;63.80;;;;;;5056510;28;20064;-74
2022/03/12 08:45:04;;;;;;;101.82;47.97;;;4.80;64.70;;;;;;5056118;28;20177;-76
2022/03/12 08:47:30;;;;;;;52.90;27.08;;;5.10;65.80;;;;;;5056280;28;20154;-76
2022/03/12 08:49:56;;;;;;;62.95;32.38;;;5.30;63.40;;;;;;5054709;28;20116;-76
2022/03/12 08:52:22;;;;;;;48.60;25.67;;;5.20;60.50;;;;;;5055833;28;20490;-76
2022/03/12 08:54:48;;;;;;;44.45;23.60;;;5.00;58.70;;;;;;5055303;28;20064;-74
2022/03/12 08:57:14;;;;;;;54.63;28.23;;;5.10;60.10;;;;;;5054881;28;20029;-73
2022/03/12 08:59:40;;;;;;;50.78;24.50;;;5.00;60.10;;;;;;5054106;28;20141;-75
2022/03/12 09:02:05;;;;;;;50.97;26.35;;;5.00;60.20;;;;;;5056014;28;20464;-74
2022/03/12 09:04:31;;;;;;;50.63;25.90;;;5.00;60.30;;;;;;5055885;28;20027;-75
2022/03/12 09:06:57;;;;;;;49.25;27.67;;;5.20;60.70;;;;;;5055892;28;20483;-74
2022/03/12 09:09:23;;;;;;;57.92;31.10;;;5.10;60.10;;;;;;5055292;28;20025;-74
2022/03/12 09:11:48;;;;;;;71.80;37.47;;;5.40;59.30;;;;;;5055355;28;20028;-75
2022/03/12 09:14:14;;;;;;;45.38;24.15;;;5.70;57.70;;;;;;5055594;28;20464;-74
2022/03/12 09:16:41;;;;;;;49.10;24.65;;;5.50;57.50;;;;;;5055514;28;20087;-74
2022/03/12 09:19:08;;;;;;;59.78;28.10;;;5.70;55.90;;;;;;5055523;28;20029;-74
2022/03/12 09:21:35;;;;;;;50.53;27.70;;;5.90;57.80;;;;;;5056059;28;20017;-74
2022/03/12 09:24:03;;;;;;;76.00;35.50;;;6.20;56.80;;;;;;5055329;28;20032;-74
2022/03/12 09:26:29;;;;;;;65.05;32.67;;;6.10;58.00;;;;;;5055375;28;20025;-74
2022/03/12 09:28:55;;;;;;;77.65;36.40;;;6.30;56.60;;;;;;5055455;28;20452;-73
2022/03/12 09:31:22;;;;;;;79.63;39.13;;;6.60;55.70;;;;;;5055187;28;20484;-73
2022/03/12 09:33:48;;;;;;;45.38;22.90;;;6.70;53.00;;;;;;5055353;28;20029;-73
2022/03/12 09:36:15;;;;;;;78.40;37.17;;;7.00;50.00;;;;;;5055326;28;20040;-74
2022/03/12 09:38:41;;;;;;;43.63;19.13;;;7.40;51.10;;;;;;5055482;28;20059;-73
2022/03/12 09:41:07;;;;;;;28.80;14.88;;;7.40;48.10;;;;;;5055034;28;20037;-74
2022/03/12 09:43:34;;;;;;;55.05;25.48;;;6.90;42.80;;;;;;5055228;28;20029;-73
2022/03/12 09:46:00;;;;;;;47.85;23.83;;;7.50;45.60;;;;;;5055179;28;20032;-74
2022/03/12 09:48:26;;;;;;;81.70;37.17;;;7.70;49.80;;;;;;5055087;28;20021;-74
2022/03/12 09:50:51;;;;;;;59.58;27.55;;;7.90;47.50;;;;;;5055120;28;20029;-73
2022/03/12 09:53:18;;;;;;;42.33;20.15;;;7.60;48.70;;;;;;5055141;28;20103;-74
2022/03/12 09:55:43;;;;;;;35.90;18.95;;;8.10;47.60;;;;;;5055079;28;20513;-74
2022/03/12 09:58:09;;;;;;;48.42;20.77;;;8.10;46.00;;;;;;5054704;28;20029;-73
2022/03/12 10:00:35;;;;;;;55.08;27.70;;;8.30;44.70;;;;;;5054823;28;20428;-74
2022/03/12 10:03:01;;;;;;;44.42;22.63;;;8.30;45.60;;;;;;5054997;28;20429;-73
2022/03/12 10:05:27;;;;;;;44.17;19.83;;;8.80;44.80;;;;;;5054762;28;20111;-73
2022/03/12 10:07:53;;;;;;;45.40;23.65;;;9.10;45.10;;;;;;5054704;28;20116;-74
2022/03/12 10:10:22;;;;;;;36.60;16.58;;;9.10;44.20;;;;;;5055022;28;20033;-74
2022/03/12 10:12:49;;;;;;;43.00;21.85;;;9.40;41.50;;;;;;5054376;28;20108;-73
2022/03/12 10:15:16;;;;;;;42.10;20.35;;;9.60;43.00;;;;;;5054525;28;20036;-73
2022/03/12 10:17:43;;;;;;;38.05;20.35;;;8.90;40.30;;;;;;5054410;28;20028;-75
2022/03/12 10:20:13;;;;;;;77.88;31.98;;;9.60;41.70;;;;;;5054435;28;20466;-73
2022/03/12 10:22:39;;;;;;;47.67;22.25;;;9.70;42.20;;;;;;5054432;28;20025;-75
2022/03/12 10:25:06;;;;;;;39.53;19.33;;;9.40;40.70;;;;;;5054348;28;20514;-73
2022/03/12 10:27:33;;;;;;;36.05;18.90;;;9.90;41.20;;;;;;5054754;28;20352;-73
2022/03/12 10:29:59;;;;;;;28.48;15.43;;;10.20;38.50;;;;;;5054074;28;20379;-74
2022/03/12 10:32:41;;;;;;;30.27;16.52;;;10.70;38.30;;;;;;5054123;28;20033;-73
2022/03/12 10:35:08;;;;;;;34.10;17.77;;;10.80;38.30;;;;;;5054079;28;20403;-74
2022/03/12 10:37:35;;;;;;;31.58;15.45;;;10.80;37.40;;;;;;5054085;28;20183;-73
2022/03/12 10:40:06;;;;;;;35.15;18.42;;;11.10;38.60;;;;;;5054175;28;20040;-73
2022/03/12 10:42:34;;;;;;;40.63;19.73;;;11.10;35.30;;;;;;5054128;28;20056;-73
2022/03/12 10:45:11;;;;;;;25.70;14.65;;;11.10;36.10;;;;;;5054274;28;20468;-73
2022/03/12 10:47:46;;;;;;;34.17;16.73;;;10.60;35.80;;;;;;5054012;28;20033;-73
2022/03/12 10:50:16;;;;;;;32.30;16.85;;;11.20;35.70;;;;;;5053959;28;20479;-74
2022/03/12 10:52:49;;;;;;;31.85;17.23;;;11.30;36.20;;;;;;5053769;28;20083;-74
2022/03/12 10:55:45;;;;;;;39.67;19.95;;;11.40;36.30;;;;;;5053795;28;20032;-73
2022/03/12 10:58:18;;;;;;;40.42;19.83;;;11.60;36.30;;;;;;5053823;28;20529;-73
2022/03/12 11:00:55;;;;;;;39.53;19.05;;;11.60;35.20;;;;;;5053884;28;20021;-72
2022/03/12 11:03:26;;;;;;;37.50;18.52;;;12.40;36.90;;;;;;5053437;28;20021;-75
2022/03/12 11:05:55;;;;;;;34.63;19.13;;;12.00;34.00;;;;;;5053922;28;20037;-74
2022/03/12 11:08:26;;;;;;;36.50;19.02;;;12.10;35.70;;;;;;5053372;28;20361;-74
2022/03/12 11:10:52;;;;;;;33.70;18.45;;;11.70;33.70;;;;;;5053665;28;20055;-75
2022/03/12 11:13:47;;;;;;;35.63;18.80;;;12.10;35.90;;;;;;5053730;28;20021;-74
2022/03/12 11:16:24;;;;;;;28.80;16.90;;;12.30;35.10;;;;;;5053748;28;20017;-74
2022/03/12 11:18:52;;;;;;;30.60;18.02;;;11.90;32.40;;;;;;5053535;28;20031;-74
2022/03/12 11:21:51;;;;;;;36.70;18.67;;;12.10;31.70;;;;;;5053475;28;20021;-74
2022/03/12 11:24:27;;;;;;;40.58;22.25;;;12.30;32.90;;;;;;5053157;28;20033;-75
2022/03/12 11:26:59;;;;;;;71.30;36.17;;;12.30;34.10;;;;;;5052362;28;20033;-74
2022/03/12 11:29:27;;;;;;;40.97;21.83;;;12.50;33.60;;;;;;5053150;28;20079;-74
2022/03/12 11:32:04;;;;;;;33.45;19.40;;;11.90;33.70;;;;;;5053700;28;20021;-74
2022/03/12 11:34:38;;;;;;;33.90;16.13;;;12.00;34.50;;;;;;5053650;28;20025;-75
2022/03/12 11:37:25;;;;;;;26.77;14.93;;;12.10;33.30;;;;;;5053695;28;20082;-76
2022/03/12 11:39:53;;;;;;;28.85;15.05;;;12.30;31.50;;;;;;5052813;28;20082;-75
2022/03/12 11:42:32;;;;;;;33.28;16.30;;;11.90;30.70;;;;;;5053270;28;20021;-76
2022/03/12 11:45:00;;;;;;;31.65;15.35;;;11.30;30.70;;;;;;5053469;28;20055;-73
2022/03/12 11:47:35;;;;;;;38.38;19.95;;;12.00;30.80;;;;;;5053091;28;20029;-76
2022/03/12 11:50:06;;;;;;;26.33;14.70;;;12.40;32.60;;;;;;5053245;28;20048;-75
2022/03/12 11:52:33;;;;;;;22.48;10.77;;;12.00;30.60;;;;;;5053303;28;20095;-75
2022/03/12 11:55:05;;;;;;;23.75;13.05;;;12.10;31.10;;;;;;5053099;28;20036;-74
2022/03/12 11:57:34;;;;;;;26.33;13.43;;;11.60;30.40;;;;;;5053473;28;20148;-75
2022/03/12 12:00:02;;;;;;;27.55;12.80;;;11.30;30.70;;;;;;5053188;28;20021;-75
2022/03/12 12:02:34;;;;;;;20.30;11.38;;;11.80;31.50;;;;;;5052293;28;20029;-75
2022/03/12 12:05:02;;;;;;;;;;;11.10;30.00;;;;;;5052516;28;20061;-75
2022/03/12 12:07:36;;;;;;;58.20;23.10;;;11.70;29.50;;;;;;5052508;28;19931;-73
2022/03/12 12:10:24;;;;;;;38.95;19.55;;;11.60;31.00;;;;;;5052056;28;20021;-75
2022/03/12 12:12:51;;;;;;;29.45;16.58;;;10.70;29.50;;;;;;5052591;28;20070;-74
2022/03/12 12:15:20;;;;;;;46.00;22.63;;;11.10;29.80;;;;;;5052604;28;20064;-75
2022/03/12 12:17:47;;;;;;;27.50;15.10;;;11.50;30.20;;;;;;5052468;28;20032;-76
2022/03/12 12:20:15;;;;;;;33.75;17.13;;;11.80;29.70;;;;;;5052061;28;20469;-74
2022/03/12 12:22:42;;;;;;;62.63;23.80;;;11.70;29.40;;;;;;5051205;28;20118;-74
2022/03/12 12:25:09;;;;;;;34.45;19.50;;;11.50;29.70;;;;;;5051764;28;20033;-75
2022/03/12 12:27:50;;;;;;;31.17;15.88;;;11.90;30.20;;;;;;5052012;28;20029;-74
2022/03/12 12:30:38;;;;;;;33.72;19.23;;;11.70;28.80;;;;;;5052390;28;20052;-74